createdAt,value
2018-09-18T00:01:54.119Z,12.80
2018-09-18T00:04:21.782Z,12.80
2018-09-18T00:06:49.429Z,12.70
2018-09-18T00:09:17.038Z,12.70
2018-09-18T00:11:44.657Z,12.60
2018-09-18T00:14:12.280Z,12.60
2018-09-18T00:16:39.899Z,12.60
2018-09-18T00:19:07.531Z,12.60
2018-09-18T00:21:35.204Z,12.50
2018-09-18T00:24:02.841Z,12.50
2018-09-18T00:26:30.440Z,12.50
2018-09-18T00:28:58.048Z,12.40
2018-09-18T00:31:25.664Z,12.40
2018-09-18T00:33:53.348Z,12.40
2018-09-18T00:36:21.240Z,12.30
2018-09-18T00:38:48.827Z,12.30
2018-09-18T00:41:16.502Z,12.30
2018-09-18T00:43:44.077Z,12.30
2018-09-18T00:46:11.943Z,12.20
2018-09-18T00:48:39.679Z,12.20
2018-09-18T00:51:07.330Z,12.10
2018-09-18T00:53:34.899Z,12.10
2018-09-18T00:56:02.552Z,12.00
2018-09-18T00:58:30.152Z,12.00
2018-09-18T01:00:57.765Z,12.00
2018-09-18T01:03:25.420Z,12.10
2018-09-18T01:05:53.033Z,12.10
2018-09-18T01:08:20.641Z,12.10
2018-09-18T01:10:48.282Z,12.00
2018-09-18T01:13:16.122Z,12.00
2018-09-18T01:15:43.731Z,11.90
2018-09-18T01:18:11.332Z,11.90
2018-09-18T01:20:39.001Z,11.90
2018-09-18T01:23:06.728Z,11.80
2018-09-18T01:25:34.635Z,11.80
2018-09-18T01:28:02.229Z,11.80
2018-09-18T01:30:30.051Z,11.70
2018-09-18T01:32:57.622Z,11.70
2018-09-18T01:35:25.196Z,11.70
2018-09-18T01:37:52.796Z,11.70
2018-09-18T01:40:20.393Z,11.70
2018-09-18T01:42:48.431Z,11.70
2018-09-18T01:45:15.983Z,11.60
2018-09-18T01:47:43.520Z,11.60
2018-09-18T01:50:11.124Z,11.60
2018-09-18T01:52:38.671Z,11.60
2018-09-18T01:55:06.355Z,11.50
2018-09-18T01:57:34.072Z,11.50
2018-09-18T02:00:01.665Z,11.40
2018-09-18T02:02:29.288Z,11.40
2018-09-18T02:04:56.855Z,11.40
2018-09-18T02:07:24.463Z,11.40
2018-09-18T02:09:52.197Z,11.40
2018-09-18T02:12:19.831Z,11.30
2018-09-18T02:14:47.424Z,11.30
2018-09-18T02:17:15.011Z,11.20
2018-09-18T02:19:43.000Z,11.20
2018-09-18T02:22:10.639Z,11.20
2018-09-18T02:24:38.247Z,11.10
2018-09-18T02:27:06.096Z,11.10
2018-09-18T02:29:33.898Z,11.00
2018-09-18T02:32:01.476Z,11.00
2018-09-18T02:34:29.044Z,11.00
2018-09-18T02:36:56.653Z,11.00
2018-09-18T02:39:24.292Z,11.00
2018-09-18T02:41:51.924Z,11.00
2018-09-18T02:44:19.471Z,11.00
2018-09-18T02:46:47.103Z,11.00
2018-09-18T02:49:14.676Z,11.00
2018-09-18T02:51:42.227Z,10.90
2018-09-18T02:54:09.917Z,10.90
2018-09-18T02:56:37.500Z,10.80
2018-09-18T02:59:05.106Z,10.80
2018-09-18T03:01:32.732Z,10.90
2018-09-18T03:04:00.309Z,10.90
2018-09-18T03:06:28.096Z,10.90
2018-09-18T03:08:55.689Z,10.90
2018-09-18T03:11:23.316Z,10.80
2018-09-18T03:13:50.831Z,10.80
2018-09-18T03:16:18.540Z,10.80
2018-09-18T03:18:46.044Z,10.70
2018-09-18T03:21:13.647Z,10.60
2018-09-18T03:23:41.248Z,10.70
2018-09-18T03:26:09.196Z,10.60
2018-09-18T03:28:36.807Z,10.60
2018-09-18T03:31:04.380Z,10.60
2018-09-18T03:33:31.931Z,10.60
2018-09-18T03:35:59.553Z,10.60
2018-09-18T03:38:27.149Z,10.60
2018-09-18T03:40:54.924Z,10.60
2018-09-18T03:43:22.555Z,10.50
2018-09-18T03:45:50.412Z,10.60
2018-09-18T03:48:18.106Z,10.50
2018-09-18T03:50:45.953Z,10.60
2018-09-18T03:53:13.589Z,10.50
2018-09-18T03:55:41.491Z,10.50
2018-09-18T03:58:09.047Z,10.40
2018-09-18T04:00:36.668Z,10.40
2018-09-18T04:03:04.290Z,10.40
2018-09-18T04:05:31.850Z,10.40
2018-09-18T04:07:59.478Z,10.30
2018-09-18T04:10:27.044Z,10.30
2018-09-18T04:12:54.657Z,10.30
2018-09-18T04:15:22.410Z,10.30
2018-09-18T04:17:50.039Z,10.20
2018-09-18T04:20:17.617Z,10.20
2018-09-18T04:22:45.234Z,10.20
2018-09-18T04:25:12.823Z,10.20
2018-09-18T04:27:41.142Z,10.20
2018-09-18T04:30:08.775Z,10.20
2018-09-18T04:32:36.447Z,10.10
2018-09-18T04:35:04.172Z,10.10
2018-09-18T04:37:31.740Z,10.10
2018-09-18T04:39:59.327Z,10.10
2018-09-18T04:42:26.934Z,10.00
2018-09-18T04:44:54.526Z,10.10
2018-09-18T04:47:22.136Z,10.20
2018-09-18T04:49:49.744Z,10.20
2018-09-18T04:52:17.300Z,10.20
2018-09-18T04:54:44.942Z,10.20
2018-09-18T04:57:12.578Z,10.20
2018-09-18T04:59:40.165Z,10.20
2018-09-18T05:02:08.035Z,10.20
2018-09-18T05:04:35.689Z,10.20
2018-09-18T05:07:03.323Z,10.20
2018-09-18T05:09:31.061Z,10.20
2018-09-18T05:11:58.615Z,10.30
2018-09-18T05:14:26.163Z,10.30
2018-09-18T05:16:53.735Z,10.30
2018-09-18T05:19:21.384Z,10.30
2018-09-18T05:21:48.949Z,10.30
2018-09-18T05:24:18.141Z,10.30
2018-09-18T05:26:45.685Z,10.30
2018-09-18T05:29:13.240Z,10.30
2018-09-18T05:31:40.811Z,10.30
2018-09-18T05:34:08.468Z,10.30
2018-09-18T05:36:36.046Z,10.40
2018-09-18T05:39:05.431Z,10.40
2018-09-18T05:41:32.964Z,10.50
2018-09-18T05:44:00.524Z,10.40
2018-09-18T05:46:28.129Z,10.40
2018-09-18T05:48:55.681Z,10.50
2018-09-18T05:51:23.284Z,10.50
2018-09-18T05:53:50.843Z,10.60
2018-09-18T05:56:18.384Z,10.60
2018-09-18T05:58:46.235Z,10.60
2018-09-18T06:01:13.854Z,10.60
2018-09-18T06:03:41.448Z,10.70
2018-09-18T06:06:09.028Z,10.70
2018-09-18T06:08:36.570Z,10.80
2018-09-18T06:11:04.137Z,10.80
2018-09-18T06:13:31.732Z,10.80
2018-09-18T06:15:59.290Z,10.90
2018-09-18T06:18:26.892Z,11.00
2018-09-18T06:20:54.735Z,11.00
2018-09-18T06:23:22.456Z,11.10
2018-09-18T06:25:50.147Z,11.10
2018-09-18T06:28:17.721Z,11.20
2018-09-18T06:30:45.294Z,11.20
2018-09-18T06:33:13.172Z,11.30
2018-09-18T06:35:40.750Z,11.30
2018-09-18T06:38:08.301Z,11.40
2018-09-18T06:40:35.903Z,11.50
2018-09-18T06:43:03.490Z,11.50
2018-09-18T06:45:31.055Z,11.60
2018-09-18T06:47:59.503Z,11.70
2018-09-18T06:50:27.015Z,11.70
2018-09-18T06:52:54.602Z,11.80
2018-09-18T06:55:22.206Z,11.90
2018-09-18T06:57:49.795Z,12.00
2018-09-18T07:00:17.405Z,12.20
2018-09-18T07:02:44.945Z,12.30
2018-09-18T07:05:12.496Z,12.40
2018-09-18T07:07:40.160Z,12.60
2018-09-18T07:10:07.749Z,12.70
2018-09-18T07:12:35.296Z,12.80
2018-09-18T07:15:02.931Z,13.00
2018-09-18T07:17:30.529Z,13.20
2018-09-18T07:19:58.144Z,13.30
2018-09-18T07:22:25.744Z,13.40
2018-09-18T07:24:53.430Z,13.50
2018-09-18T07:27:20.962Z,13.60
2018-09-18T07:29:48.520Z,13.60
2018-09-18T07:32:16.143Z,13.70
2018-09-18T07:34:43.744Z,13.70
2018-09-18T07:37:11.349Z,13.80
2018-09-18T07:39:38.948Z,13.90
2018-09-18T07:42:06.528Z,14.10
2018-09-18T07:44:34.082Z,14.20
2018-09-18T07:47:01.672Z,14.40
2018-09-18T07:49:29.243Z,14.50
2018-09-18T07:51:56.824Z,14.50
2018-09-18T07:54:24.428Z,14.70
2018-09-18T07:56:52.042Z,14.80
2018-09-18T07:59:19.640Z,15.00
2018-09-18T08:01:47.235Z,15.20
2018-09-18T08:04:14.843Z,15.20
2018-09-18T08:06:42.555Z,15.30
2018-09-18T08:09:10.839Z,15.40
2018-09-18T08:11:38.429Z,15.50
2018-09-18T08:14:06.079Z,15.60
2018-09-18T08:16:33.676Z,15.80
2018-09-18T08:19:01.324Z,16.00
2018-09-18T08:21:28.923Z,16.30
2018-09-18T08:23:56.544Z,16.60
2018-09-18T08:26:24.155Z,16.90
2018-09-18T08:28:51.756Z,17.10
2018-09-18T08:31:19.357Z,17.20
2018-09-18T08:33:47.074Z,17.30
2018-09-18T08:36:14.651Z,17.30
2018-09-18T08:38:42.204Z,17.30
2018-09-18T08:41:09.847Z,17.40
2018-09-18T08:43:37.401Z,17.70
2018-09-18T08:46:05.032Z,17.90
2018-09-18T08:48:32.574Z,18.20
2018-09-18T08:51:01.189Z,18.20
2018-09-18T08:53:29.508Z,18.40
2018-09-18T08:55:57.208Z,18.80
2018-09-18T08:58:25.229Z,18.90
2018-09-18T09:00:52.784Z,19.20
2018-09-18T09:03:20.419Z,19.40
2018-09-18T09:05:48.095Z,19.60
2018-09-18T09:08:15.713Z,19.80
2018-09-18T09:10:43.373Z,20.10
2018-09-18T09:13:11.005Z,20.40
2018-09-18T09:15:38.626Z,20.60
2018-09-18T09:18:06.414Z,20.80
2018-09-18T09:20:33.940Z,21.00
2018-09-18T09:23:01.592Z,21.30
2018-09-18T09:25:29.757Z,21.50
2018-09-18T09:27:57.399Z,21.70
2018-09-18T09:30:24.944Z,21.90
2018-09-18T09:32:52.564Z,22.20
2018-09-18T09:35:20.207Z,22.30
2018-09-18T09:37:47.805Z,22.30
2018-09-18T09:40:16.424Z,22.40
2018-09-18T09:42:44.144Z,22.50
2018-09-18T09:45:11.863Z,22.60
2018-09-18T09:47:39.403Z,22.70
2018-09-18T09:50:07.503Z,22.80
2018-09-18T09:52:35.093Z,22.90
2018-09-18T09:55:02.705Z,23.00
2018-09-18T09:57:30.453Z,23.20
2018-09-18T09:59:58.049Z,23.30
2018-09-18T10:02:27.517Z,23.50
2018-09-18T10:04:55.471Z,23.70
2018-09-18T10:07:23.046Z,23.80
2018-09-18T10:09:50.748Z,24.00
2018-09-18T10:12:18.365Z,24.30
2018-09-18T10:14:45.984Z,24.40
2018-09-18T10:17:13.560Z,24.60
2018-09-18T10:19:41.164Z,24.80
2018-09-18T10:22:08.757Z,25.00
2018-09-18T10:24:36.339Z,25.00
2018-09-18T10:27:04.047Z,25.10
2018-09-18T10:29:31.614Z,25.10
2018-09-18T10:31:59.695Z,25.30
2018-09-18T10:34:27.292Z,25.30
2018-09-18T10:36:55.506Z,25.50
2018-09-18T10:39:23.153Z,25.70
2018-09-18T10:41:51.036Z,25.80
2018-09-18T10:44:18.551Z,26.00
2018-09-18T10:46:46.142Z,26.10
2018-09-18T10:49:13.776Z,26.00
2018-09-18T10:51:41.372Z,25.90
2018-09-18T10:54:08.980Z,25.80
2018-09-18T10:56:36.517Z,25.70
2018-09-18T10:59:04.244Z,25.50
2018-09-18T11:01:31.898Z,25.40
2018-09-18T11:03:59.512Z,25.50
2018-09-18T11:06:27.124Z,25.70
2018-09-18T11:08:54.857Z,25.80
2018-09-18T11:11:22.514Z,26.00
2018-09-18T11:13:50.352Z,26.10
2018-09-18T11:16:17.850Z,26.10
2018-09-18T11:18:45.453Z,26.10
2018-09-18T11:21:13.147Z,26.20
2018-09-18T11:23:40.893Z,26.20
2018-09-18T11:26:08.489Z,26.30
2018-09-18T11:28:36.113Z,26.60
2018-09-18T11:31:03.723Z,26.80
2018-09-18T11:33:31.340Z,26.90
2018-09-18T11:35:59.082Z,26.90
2018-09-18T11:38:26.696Z,26.80
2018-09-18T11:40:54.366Z,26.60
2018-09-18T11:43:22.016Z,26.50
2018-09-18T11:45:49.729Z,26.60
2018-09-18T11:48:17.396Z,26.60
2018-09-18T11:50:45.031Z,26.90
2018-09-18T11:53:12.643Z,27.10
2018-09-18T11:55:40.589Z,27.20
2018-09-18T11:58:08.183Z,27.30
2018-09-18T12:00:35.856Z,27.40
2018-09-18T12:03:03.577Z,27.30
2018-09-18T12:05:31.178Z,27.30
2018-09-18T12:07:58.800Z,27.50
2018-09-18T12:10:26.413Z,27.60
2018-09-18T12:12:54.064Z,27.60
2018-09-18T12:15:21.767Z,27.50
2018-09-18T12:17:49.372Z,27.50
2018-09-18T12:20:17.006Z,27.60
2018-09-18T12:22:44.754Z,27.50
2018-09-18T12:25:12.332Z,27.70
2018-09-18T12:27:40.026Z,27.80
2018-09-18T12:30:07.974Z,27.90
2018-09-18T12:32:35.777Z,28.00
2018-09-18T12:35:03.505Z,28.20
2018-09-18T12:37:31.115Z,28.20
2018-09-18T12:39:58.782Z,28.10
2018-09-18T12:42:26.413Z,28.20
2018-09-18T12:44:54.016Z,28.10
2018-09-18T12:47:21.625Z,28.00
2018-09-18T12:49:49.449Z,28.10
2018-09-18T12:52:17.032Z,28.10
2018-09-18T12:54:44.652Z,27.90
2018-09-18T12:57:12.644Z,28.00
2018-09-18T12:59:40.133Z,28.00
2018-09-18T13:02:07.749Z,27.90
2018-09-18T13:04:35.390Z,28.00
2018-09-18T13:07:03.196Z,27.90
2018-09-18T13:09:30.713Z,27.90
2018-09-18T13:11:58.352Z,28.00
2018-09-18T13:14:25.967Z,28.00
2018-09-18T13:16:53.605Z,27.90
2018-09-18T13:19:21.275Z,27.90
2018-09-18T13:21:48.948Z,27.80
2018-09-18T13:24:16.664Z,27.90
2018-09-18T13:26:44.552Z,28.00
2018-09-18T13:29:12.185Z,28.00
2018-09-18T13:31:39.904Z,28.10
2018-09-18T13:34:07.565Z,28.00
2018-09-18T13:36:35.247Z,28.00
2018-09-18T13:39:03.158Z,28.10
2018-09-18T13:41:30.825Z,28.10
2018-09-18T13:43:58.421Z,28.10
2018-09-18T13:46:26.085Z,28.00
2018-09-18T13:48:53.660Z,28.00
2018-09-18T13:51:21.375Z,28.10
2018-09-18T13:53:48.975Z,28.20
2018-09-18T13:56:16.635Z,28.10
2018-09-18T13:58:44.277Z,28.10
2018-09-18T14:01:12.010Z,28.10
2018-09-18T14:03:39.572Z,28.10
2018-09-18T14:06:07.943Z,28.10
2018-09-18T14:08:35.746Z,28.30
2018-09-18T14:11:03.387Z,28.20
2018-09-18T14:13:31.024Z,28.20
2018-09-18T14:15:58.631Z,28.30
2018-09-18T14:18:26.252Z,28.30
2018-09-18T14:20:53.841Z,28.40
2018-09-18T14:23:21.492Z,28.30
2018-09-18T14:25:49.784Z,28.30
2018-09-18T14:28:17.403Z,28.40
2018-09-18T14:30:45.173Z,28.40
2018-09-18T14:33:12.827Z,28.30
2018-09-18T14:35:40.431Z,28.30
2018-09-18T14:38:08.005Z,28.20
2018-09-18T14:40:35.716Z,28.20
2018-09-18T14:43:03.424Z,28.10
2018-09-18T14:45:31.041Z,28.00
2018-09-18T14:47:58.673Z,27.90
2018-09-18T14:50:26.400Z,27.80
2018-09-18T14:52:54.026Z,27.80
2018-09-18T14:55:21.657Z,27.80
2018-09-18T14:57:49.213Z,27.80
2018-09-18T15:00:16.902Z,27.80
2018-09-18T15:02:44.496Z,27.70
2018-09-18T15:05:12.135Z,27.60
2018-09-18T15:07:39.725Z,27.50
2018-09-18T15:10:07.324Z,27.50
2018-09-18T15:12:34.977Z,27.50
2018-09-18T15:15:02.571Z,27.40
2018-09-18T15:17:30.186Z,27.30
2018-09-18T15:19:58.119Z,27.30
2018-09-18T15:22:25.812Z,27.20
2018-09-18T15:24:53.430Z,27.10
2018-09-18T15:27:20.987Z,27.00
2018-09-18T15:29:48.606Z,27.00
2018-09-18T15:32:16.254Z,26.90
2018-09-18T15:34:43.793Z,26.90
2018-09-18T15:37:11.371Z,26.80
2018-09-18T15:39:39.022Z,26.80
2018-09-18T15:42:06.626Z,26.80
2018-09-18T15:44:34.265Z,26.80
2018-09-18T15:47:01.898Z,26.60
2018-09-18T15:49:29.467Z,26.40
2018-09-18T15:51:57.071Z,26.30
2018-09-18T15:54:24.671Z,26.00
2018-09-18T15:56:52.296Z,25.60
2018-09-18T15:59:19.925Z,25.30
2018-09-18T16:01:47.495Z,25.00
2018-09-18T16:04:15.095Z,24.80
2018-09-18T16:06:42.660Z,24.70
2018-09-18T16:09:11.113Z,24.70
2018-09-18T16:11:39.243Z,24.70
2018-09-18T16:14:07.176Z,24.60
2018-09-18T16:16:34.786Z,24.30
2018-09-18T16:19:02.373Z,24.30
2018-09-18T16:21:30.016Z,24.40
2018-09-18T16:23:57.749Z,24.30
2018-09-18T16:26:25.335Z,23.90
2018-09-18T16:28:52.944Z,23.70
2018-09-18T16:31:20.505Z,23.50
2018-09-18T16:33:49.315Z,23.50
2018-09-18T16:36:16.942Z,23.50
2018-09-18T16:38:44.562Z,23.50
2018-09-18T16:41:12.296Z,23.50
2018-09-18T16:43:40.046Z,23.40
2018-09-18T16:46:07.639Z,23.20
2018-09-18T16:48:35.281Z,23.00
2018-09-18T16:51:03.186Z,22.80
2018-09-18T16:53:31.077Z,22.70
2018-09-18T16:55:58.676Z,22.60
2018-09-18T16:58:26.389Z,22.50
2018-09-18T17:00:54.237Z,22.20
2018-09-18T17:03:22.102Z,22.20
2018-09-18T17:05:49.731Z,22.30
2018-09-18T17:08:17.324Z,22.30
2018-09-18T17:10:44.990Z,22.30
2018-09-18T17:13:12.644Z,22.20
2018-09-18T17:15:40.245Z,22.20
2018-09-18T17:18:07.833Z,22.30
2018-09-18T17:20:35.420Z,22.20
2018-09-18T17:23:03.084Z,22.20
2018-09-18T17:25:30.688Z,22.00
2018-09-18T17:27:58.243Z,21.90
2018-09-18T17:30:26.254Z,21.60
2018-09-18T17:32:53.828Z,21.40
2018-09-18T17:35:21.517Z,21.20
2018-09-18T17:37:49.123Z,21.00
2018-09-18T17:40:17.495Z,20.90
2018-09-18T17:42:45.057Z,20.70
2018-09-18T17:45:12.694Z,20.80
2018-09-18T17:47:40.615Z,20.80
2018-09-18T17:50:09.033Z,20.90
2018-09-18T17:52:36.685Z,20.90
2018-09-18T17:55:04.413Z,20.80
2018-09-18T17:57:32.082Z,20.60
2018-09-18T17:59:59.788Z,20.70
2018-09-18T18:02:27.385Z,20.70
2018-09-18T18:04:54.933Z,20.70
2018-09-18T18:07:22.566Z,20.50
2018-09-18T18:09:50.111Z,20.50
2018-09-18T18:12:17.759Z,20.40
2018-09-18T18:14:45.328Z,20.40
2018-09-18T18:17:12.928Z,20.40
2018-09-18T18:19:41.699Z,20.50
2018-09-18T18:22:09.357Z,20.40
2018-09-18T18:24:36.982Z,20.40
2018-09-18T18:27:04.657Z,20.40
2018-09-18T18:29:32.334Z,20.30
2018-09-18T18:31:59.832Z,20.20
2018-09-18T18:34:27.451Z,20.20
2018-09-18T18:36:55.140Z,20.20
2018-09-18T18:39:22.816Z,20.20
2018-09-18T18:41:50.360Z,20.20
2018-09-18T18:44:17.963Z,20.20
2018-09-18T18:46:45.876Z,20.20
2018-09-18T18:49:13.713Z,20.20
2018-09-18T18:51:41.664Z,20.30
2018-09-18T18:54:09.200Z,20.20
2018-09-18T18:56:36.806Z,20.00
2018-09-18T18:59:04.449Z,19.90
2018-09-18T19:01:32.065Z,20.00
2018-09-18T19:03:59.649Z,20.00
2018-09-18T19:06:27.300Z,19.70
2018-09-18T19:08:54.848Z,19.50
2018-09-18T19:11:22.443Z,19.30
2018-09-18T19:13:50.048Z,19.30
2018-09-18T19:16:17.701Z,19.20
2018-09-18T19:18:45.381Z,19.10
2018-09-18T19:21:12.993Z,19.20
2018-09-18T19:23:40.765Z,19.20
2018-09-18T19:26:09.130Z,19.10
2018-09-18T19:28:36.780Z,19.10
2018-09-18T19:31:04.347Z,19.10
2018-09-18T19:33:32.016Z,19.00
2018-09-18T19:35:59.575Z,19.00
2018-09-18T19:38:27.156Z,19.00
2018-09-18T19:40:54.782Z,19.10
2018-09-18T19:43:23.619Z,19.10
2018-09-18T19:45:51.187Z,19.00
2018-09-18T19:48:18.962Z,19.00
2018-09-18T19:50:46.604Z,18.90
2018-09-18T19:53:14.226Z,18.80
2018-09-18T19:55:42.339Z,18.80
2018-09-18T19:58:09.935Z,18.80
2018-09-18T20:00:37.582Z,18.70
2018-09-18T20:03:04.995Z,18.60
2018-09-18T20:05:32.723Z,18.60
2018-09-18T20:08:00.301Z,18.50
2018-09-18T20:10:27.931Z,18.50
2018-09-18T20:12:55.665Z,18.50
2018-09-18T20:15:23.334Z,18.30
2018-09-18T20:17:51.016Z,18.30
2018-09-18T20:20:18.704Z,18.20
2018-09-18T20:22:46.365Z,18.30
2018-09-18T20:25:13.973Z,18.30
2018-09-18T20:27:41.585Z,18.30
2018-09-18T20:30:09.353Z,18.20
2018-09-18T20:32:36.958Z,18.10
2018-09-18T20:35:04.661Z,18.00
2018-09-18T20:37:32.321Z,18.00
2018-09-18T20:39:59.970Z,17.90
2018-09-18T20:42:27.558Z,17.90
2018-09-18T20:44:55.259Z,17.90
2018-09-18T20:47:23.087Z,17.80
2018-09-18T20:49:50.772Z,17.80
2018-09-18T20:52:18.493Z,17.80
2018-09-18T20:54:46.103Z,17.70
2018-09-18T20:57:13.688Z,17.60
2018-09-18T20:59:41.322Z,17.60
2018-09-18T21:02:08.952Z,17.60
2018-09-18T21:04:36.531Z,17.60
2018-09-18T21:07:04.478Z,17.50
2018-09-18T21:09:32.140Z,17.50
2018-09-18T21:11:59.763Z,17.40
2018-09-18T21:14:27.451Z,17.30
2018-09-18T21:16:55.067Z,17.30
2018-09-18T21:19:22.696Z,17.30
2018-09-18T21:21:50.371Z,17.30
2018-09-18T21:24:17.988Z,17.30
2018-09-18T21:26:45.584Z,17.20
2018-09-18T21:29:13.203Z,17.20
2018-09-18T21:31:40.809Z,17.10
2018-09-18T21:34:08.447Z,17.10
2018-09-18T21:36:36.070Z,17.10
2018-09-18T21:39:06.652Z,17.00
2018-09-18T21:41:34.239Z,17.00
2018-09-18T21:44:01.885Z,17.00
2018-09-18T21:46:29.608Z,16.90
2018-09-18T21:48:57.247Z,16.90
2018-09-18T21:51:24.820Z,16.90
2018-09-18T21:53:52.465Z,16.80
2018-09-18T21:56:20.621Z,16.80
2018-09-18T21:58:48.255Z,16.80
2018-09-18T22:01:15.938Z,16.80
2018-09-18T22:03:43.490Z,16.70
2018-09-18T22:06:11.086Z,16.60
2018-09-18T22:08:38.645Z,16.60
2018-09-18T22:11:06.332Z,16.60
2018-09-18T22:13:34.139Z,16.50
2018-09-18T22:16:01.729Z,16.50
2018-09-18T22:18:29.341Z,16.40
2018-09-18T22:20:57.007Z,16.40
2018-09-18T22:23:24.636Z,16.40
2018-09-18T22:25:52.283Z,16.30
2018-09-18T22:28:19.860Z,16.20
2018-09-18T22:30:47.465Z,16.20
2018-09-18T22:33:15.036Z,16.20
2018-09-18T22:35:42.620Z,16.10
2018-09-18T22:38:10.183Z,16.10
2018-09-18T22:40:37.790Z,16.10
2018-09-18T22:43:05.485Z,16.10
2018-09-18T22:45:33.077Z,16.00
2018-09-18T22:48:00.627Z,16.00
2018-09-18T22:50:28.244Z,15.90
2018-09-18T22:52:55.837Z,15.90
2018-09-18T22:55:23.487Z,15.90
2018-09-18T22:57:51.048Z,15.80
2018-09-18T23:00:18.696Z,15.90
2018-09-18T23:02:46.386Z,15.80
2018-09-18T23:05:14.128Z,15.70
2018-09-18T23:07:41.702Z,15.70
2018-09-18T23:10:09.315Z,15.70
2018-09-18T23:12:36.946Z,15.60
2018-09-18T23:15:04.655Z,15.50
2018-09-18T23:17:32.272Z,15.50
2018-09-18T23:19:59.953Z,15.50
2018-09-18T23:22:28.382Z,15.50
2018-09-18T23:24:56.429Z,15.50
2018-09-18T23:27:24.020Z,15.40
2018-09-18T23:29:51.658Z,15.40
2018-09-18T23:32:19.293Z,15.40
2018-09-18T23:34:46.937Z,15.40
2018-09-18T23:37:14.528Z,15.30
2018-09-18T23:39:42.396Z,15.30
2018-09-18T23:42:10.107Z,15.20
2018-09-18T23:44:37.783Z,15.20
2018-09-18T23:47:05.405Z,15.20
2018-09-18T23:49:33.043Z,15.20
2018-09-18T23:52:00.664Z,15.20
2018-09-18T23:54:28.324Z,15.10
2018-09-18T23:56:55.946Z,15.10
2018-09-18T23:59:23.651Z,15.10
